Detall de PIREP

Printer-friendly versionPDF version

[2010/08/16 14:17:00]
Flight IATA:CT2104
Pilot Number:041
Company ICAO:CAT
Aircraft Type:F100/A
PAX:105
Departing Airport: LEVC
Destination Airport: LEBB
Alternate Airport:LEVT
Online: VATSIM
Route:CENTA2B A33 PRADO A33 CJN A33 HORTA B11 RBO B11 OSTIX B11 GASMO B11 DGO
Flight Level:FL190
No Slew and time accel
No pause
Crash detect
Detect pilot in Cockpit between each 30 and 45 minutes
14:17 Zero fuel Weight: 84379 Lbs, Fuel Weight: 9001 Lbs
14:17 VATSIM:LEVC 161400Z 10010KT 070V150 9999 FEW040 SCT050 27/15 Q1020 NOSIG
14:17 VATSIM:LEBB 161400Z 34011KT 310V010 9999 SCT035 22/15 Q1022 NOSIG
14:17 VOICE CATALONIAN
14:21 Parking Brakes off
14:29 Take-off
14:29 Take off Weight: 92804 Lbs
14:29 Wind: 103º @ 010 Knots Heading: 115º
14:29 POS N39º 29´ 12´´ W000º 28´ 28´´
14:29 Gear Up: 201 Knots
14:29 Flaps:1 at 201 Knots
14:29 Flaps:0 at 225 Knots
14:44 Wind:252º@017Knots Heading: 297º Ground Speed: 346 Knots Altitude 15095 ft
14:46 TOC
14:46 Fuel Weight: 6726 Lb
14:59 Wind:238º@019 Knots Heading: 294º Ground Speed: 376 Knots Altitude 19173 ft
14:59 TOD
14:59 Fuel Weight: 5643 Lb
15:14 Wind:299º@003 Knots Heading: 009º Ground Speed: 379 Knots Altitude 18274 ft
15:28 Flaps:1 at 213 Knots
15:29 Wind:046º@002 Knots Heading: 304º Ground Speed: 222 Knots Altitude 4025 ft
15:30 Flaps:2 at 199 Knots
15:31 Flaps:3 at 180 Knots
15:32 Gear Down: 173 Knots
15:34 Flaps:4 at 170 Knots
15:35 Flaps:3 at 151 Knots
15:36 TouchDown:Rate -45 ft/min Speed: 169 Knots
15:37 VATSIM:LEBB 161500Z 01008KT 350V050 9999 SCT035 23/15 Q1022 NOSIG
15:37 Land
15:37 Wind:349º@010 Knots
15:37 Heading: 058º
15:37 Flight Duration: 01:08
15:37 Landing Weight: 87191 Lbs
15:37 POS N43º 18´ 04´´ W002º 54´ 23´´
15:39 Parking brakes on
15:39 Block to Block Duration: 01:18
15:39 Final Fuel: 2720 Lbls
15:39 Spent Fuel: 6280 Lbls
15:39 Flight Length: 362 NM
15:39 TOD Land Length: 198 NM

Exportar CSV

Powered by Drupal - Modified by Danger4k